Time;durP1;ratioP1;P1;durP2;ratioP2;P2;SDS_P1;SDS_P2;PMS_P1;PMS_P2;Temp;Humidity;BMP_temperature;BMP_pressure;BME280_temperature;BME280_humidity;BME280_pressure;Samples;Min_cycle;Max_cycle;Signal;HPM_P1;HPM_P2
2022/07/25 00:02:06;;;;;;;12.95;11.02;;;;;;;22.57;82.35;95064.28;5031318;28;20049;-73
2022/07/25 00:04:34;;;;;;;16.63;12.07;;;;;;;22.56;82.40;95052.09;5014219;28;20049;-71
2022/07/25 00:07:02;;;;;;;14.48;12.23;;;;;;;22.61;82.82;95065.25;5028997;28;20533;-72
2022/07/25 00:09:28;;;;;;;18.83;12.35;;;;;;;22.60;83.24;95052.28;5029335;28;20049;-72
2022/07/25 00:12:01;;;;;;;15.73;12.27;;;;;;;22.59;83.48;95053.38;5024583;28;20041;-74
2022/07/25 00:14:31;;;;;;;18.05;12.48;;;;;;;22.62;83.44;95053.56;5027050;28;20045;-72
2022/07/25 00:16:58;;;;;;;15.50;11.88;;;;;;;22.69;82.55;95051.25;5008481;28;20119;-72
2022/07/25 00:19:25;;;;;;;16.13;12.55;;;;;;;22.75;81.69;95040.53;5028329;28;20138;-72
2022/07/25 00:21:52;;;;;;;16.50;12.13;;;;;;;22.74;80.69;95030.97;5011994;28;20041;-72
2022/07/25 00:24:20;;;;;;;15.60;11.95;;;;;;;22.83;81.25;95045.91;5025946;28;20588;-73
2022/07/25 00:26:46;;;;;;;18.83;12.68;;;;;;;22.78;81.70;95042.56;5021628;28;20033;-73
2022/07/25 00:29:13;;;;;;;14.73;11.75;;;;;;;22.74;82.33;95037.06;5026344;28;20046;-73
2022/07/25 00:31:40;;;;;;;18.77;13.35;;;;;;;22.67;82.97;95026.09;5007972;28;20038;-73
2022/07/25 00:34:07;;;;;;;15.80;12.15;;;;;;;22.66;83.35;95035.16;5009726;28;20568;-73
2022/07/25 00:36:35;;;;;;;14.40;12.27;;;;;;;22.60;84.07;95037.16;5021500;28;20144;-73
2022/07/25 00:39:03;;;;;;;19.65;12.02;;;;;;;22.54;84.24;95025.06;5005996;28;20041;-73
2022/07/25 00:41:30;;;;;;;17.08;12.60;;;;;;;22.49;84.54;95025.19;5006589;28;20040;-73
2022/07/25 00:43:57;;;;;;;17.02;13.57;;;;;;;22.41;84.78;95023.28;5029798;28;20581;-73
2022/07/25 00:46:24;;;;;;;15.63;12.55;;;;;;;22.39;85.02;95025.44;5028011;28;20507;-73
2022/07/25 00:48:52;;;;;;;16.60;12.43;;;;;;;22.36;85.05;95020.72;5027507;28;20069;-73
2022/07/25 00:51:20;;;;;;;20.08;12.45;;;;;;;22.29;84.24;95008.69;5029704;28;20399;-73
2022/07/25 00:53:47;;;;;;;16.13;12.05;;;;;;;22.38;83.81;95018.56;5027067;28;20045;-73
2022/07/25 00:56:14;;;;;;;18.85;12.68;;;;;;;22.49;83.79;95027.84;5027194;28;20037;-73
2022/07/25 00:58:44;;;;;;;15.88;12.43;;;;;;;22.43;83.51;95026.41;5031315;28;20514;-73
2022/07/25 01:01:12;;;;;;;16.17;11.95;;;;;;;22.46;83.21;95009.88;5026475;28;20072;-73
2022/07/25 01:03:39;;;;;;;16.17;11.85;;;;;;;22.52;82.79;95029.91;5031512;28;20053;-73
2022/07/25 01:06:07;;;;;;;18.05;12.30;;;;;;;22.50;83.17;95026.75;5027929;28;20457;-73
2022/07/25 01:08:34;;;;;;;16.70;12.63;;;;;;;22.46;84.36;95025.81;5029938;28;20458;-73
2022/07/25 01:11:01;;;;;;;15.90;13.27;;;;;;;22.35;84.89;95024.47;5028879;28;20037;-74
2022/07/25 01:13:32;;;;;;;19.02;12.98;;;;;;;22.21;85.35;95025.25;5027392;28;20048;-73
2022/07/25 01:15:59;;;;;;;17.38;13.20;;;;;;;22.13;85.93;95023.34;5026637;28;20041;-73
2022/07/25 01:18:26;;;;;;;18.00;12.48;;;;;;;22.06;86.32;95018.44;4998013;28;20739;-73
2022/07/25 01:20:53;;;;;;;15.35;12.57;;;;;;;22.12;86.11;95029.72;5033660;28;20045;-73
2022/07/25 01:23:20;;;;;;;20.48;12.88;;;;;;;22.10;86.37;95023.94;5016096;28;20518;-73
2022/07/25 01:25:47;;;;;;;18.75;13.68;;;;;;;22.02;86.58;95012.19;5016327;28;20037;-73
2022/07/25 01:28:14;;;;;;;16.50;13.57;;;;;;;22.02;87.32;95021.97;5031873;28;20049;-72
2022/07/25 01:30:41;;;;;;;15.85;13.15;;;;;;;21.88;87.95;95012.19;5034059;28;20053;-73
2022/07/25 01:33:08;;;;;;;17.88;13.55;;;;;;;21.90;88.04;95019.84;5033553;28;20048;-73
2022/07/25 01:35:34;;;;;;;15.32;12.88;;;;;;;21.81;88.62;95025.06;5030729;28;20045;-73
2022/07/25 01:38:08;;;;;;;19.08;13.07;;;;;;;21.81;88.62;95027.72;5030788;28;20037;-73
2022/07/25 01:40:35;;;;;;;19.67;14.88;;;;;;;21.79;88.33;95024.59;5024227;28;20049;-73
2022/07/25 01:43:02;;;;;;;17.50;13.23;;;;;;;21.75;87.85;95024.41;5037920;28;20045;-73
2022/07/25 01:45:30;;;;;;;15.57;13.45;;;;;;;21.75;88.17;95028.91;5033100;28;20518;-73
2022/07/25 01:47:57;;;;;;;22.98;13.20;;;;;;;21.69;88.09;95014.97;5031091;28;20046;-73
2022/07/25 01:50:24;;;;;;;18.52;13.60;;;;;;;21.74;88.69;95027.34;5015076;28;20442;-73
2022/07/25 01:52:51;;;;;;;23.75;13.43;;;;;;;21.75;88.64;95023.59;5032538;28;20391;-73
2022/07/25 01:55:18;;;;;;;18.02;12.82;;;;;;;21.63;88.64;95016.16;5034064;28;20045;-73
2022/07/25 01:57:45;;;;;;;16.92;13.02;;;;;;;21.67;88.75;95019.00;5029163;28;20065;-72
2022/07/25 02:00:16;;;;;;;19.50;13.82;;;;;;;21.54;89.46;95002.81;5033570;28;20076;-73
2022/07/25 02:02:43;;;;;;;16.58;13.32;;;;;;;21.48;89.92;95014.63;5032989;28;20045;-73
2022/07/25 02:05:12;;;;;;;18.50;13.88;;;;;;;21.50;90.01;95012.44;5014066;28;20552;-73
2022/07/25 02:07:39;;;;;;;21.02;13.65;;;;;;;21.41;90.46;95014.19;5033698;28;20048;-73
2022/07/25 02:10:07;;;;;;;15.75;13.23;;;;;;;21.46;90.55;95027.34;5032781;28;20572;-73
2022/07/25 02:12:34;;;;;;;18.95;13.85;;;;;;;21.45;90.59;95023.16;5033155;28;20499;-73
2022/07/25 02:15:00;;;;;;;19.80;14.07;;;;;;;21.34;91.25;95019.09;5029313;28;20064;-73
2022/07/25 02:17:27;;;;;;;16.83;13.63;;;;;;;21.19;92.30;95023.59;5014318;28;20045;-73
2022/07/25 02:19:54;;;;;;;25.27;14.60;;;;;;;21.16;92.99;95023.41;5014114;28;20512;-73
2022/07/25 02:22:21;;;;;;;19.23;14.52;;;;;;;21.23;92.47;95029.09;5030389;28;20522;-74
2022/07/25 02:24:49;;;;;;;18.20;14.48;;;;;;;21.20;92.43;95030.44;5033134;28;20568;-73
2022/07/25 02:27:16;;;;;;;17.00;14.40;;;;;;;21.13;92.48;95024.75;5025574;28;20118;-73
2022/07/25 02:29:43;;;;;;;25.00;15.93;;;;;;;21.02;93.05;95028.66;5030654;28;20060;-73
2022/07/25 02:32:10;;;;;;;21.95;14.70;;;;;;;21.00;93.31;95034.25;5025110;28;20510;-72
2022/07/25 02:34:37;;;;;;;21.15;15.88;;;;;;;20.96;93.97;95024.56;5013833;28;20122;-73
2022/07/25 02:37:04;;;;;;;23.52;15.38;;;;;;;20.89;95.13;95024.16;5011514;28;20056;-73
2022/07/25 02:39:31;;;;;;;17.80;14.73;;;;;;;20.90;95.00;95025.69;4997711;28;20045;-73
2022/07/25 02:41:58;;;;;;;20.00;15.23;;;;;;;20.81;94.91;95017.63;5009511;28;20541;-73
2022/07/25 02:44:25;;;;;;;26.30;15.23;;;;;;;20.76;95.07;95026.47;5031131;28;20523;-73
2022/07/25 02:46:52;;;;;;;18.13;15.07;;;;;;;20.69;95.12;95020.75;5025567;28;20049;-73
2022/07/25 02:49:18;;;;;;;23.13;15.75;;;;;;;20.65;95.19;95019.75;5027640;28;20055;-73
2022/07/25 02:51:45;;;;;;;18.50;15.35;;;;;;;20.69;95.85;95020.75;5033855;28;20092;-74
2022/07/25 02:54:12;;;;;;;18.80;15.85;;;;;;;20.66;96.67;95020.56;5035081;28;20530;-74
2022/07/25 02:56:40;;;;;;;20.92;14.50;;;;;;;20.67;96.51;95033.50;5030229;28;20037;-73
2022/07/25 02:59:06;;;;;;;19.35;15.57;;;;;;;20.64;96.83;95028.78;5031101;28;20068;-72
2022/07/25 03:01:34;;;;;;;23.08;15.40;;;;;;;20.48;97.44;95024.78;5014423;28;20049;-73
2022/07/25 03:04:01;;;;;;;20.00;16.13;;;;;;;20.46;97.98;95032.22;5013586;28;20049;-73
2022/07/25 03:06:28;;;;;;;19.98;15.95;;;;;;;20.34;98.32;95025.50;5031137;28;20063;-73
2022/07/25 03:08:55;;;;;;;26.20;17.00;;;;;;;20.26;99.26;95023.53;5013322;28;20049;-73
2022/07/25 03:11:22;;;;;;;26.25;16.55;;;;;;;20.20;99.64;95025.47;5008884;28;20514;-73
2022/07/25 03:13:49;;;;;;;24.70;16.85;;;;;;;20.13;100.00;95029.50;5007261;28;20514;-73
2022/07/25 03:16:15;;;;;;;21.85;16.27;;;;;;;20.05;100.00;95023.78;5021966;28;20048;-73
2022/07/25 03:18:42;;;;;;;24.55;16.95;;;;;;;20.04;100.00;95027.53;5004388;28;20049;-73
2022/07/25 03:21:09;;;;;;;20.27;16.25;;;;;;;20.09;100.00;95029.28;5004669;28;20128;-73
2022/07/25 03:23:36;;;;;;;19.27;15.45;;;;;;;20.07;100.00;95015.56;5005267;28;20600;-73
2022/07/25 03:26:03;;;;;;;22.38;15.82;;;;;;;20.18;100.00;95027.56;5022548;28;20057;-73
2022/07/25 03:28:30;;;;;;;19.25;14.50;;;;;;;20.16;100.00;95018.38;5004195;28;20048;-73
2022/07/25 03:30:57;;;;;;;18.95;15.02;;;;;;;20.16;100.00;95013.84;5022915;28;20131;-73
2022/07/25 03:33:24;;;;;;;25.77;16.30;;;;;;;20.16;100.00;95011.22;5022784;28;20052;-73
2022/07/25 03:35:51;;;;;;;21.50;14.25;;;;;;;20.21;100.00;95023.59;5005572;28;20052;-72
2022/07/25 03:38:18;;;;;;;24.38;14.88;;;;;;;20.21;100.00;95026.22;5022684;28;20049;-73
2022/07/25 03:40:45;;;;;;;21.98;15.43;;;;;;;20.18;100.00;95024.16;5004667;28;20045;-73
2022/07/25 03:43:11;;;;;;;18.42;15.70;;;;;;;20.18;100.00;95027.56;5004984;28;20044;-73
2022/07/25 03:45:38;;;;;;;19.35;14.77;;;;;;;20.22;100.00;95028.59;5013046;28;20556;-73
2022/07/25 03:48:05;;;;;;;20.75;14.77;;;;;;;20.19;100.00;95017.81;5008915;28;20053;-72
2022/07/25 03:50:32;;;;;;;19.85;15.60;;;;;;;20.29;99.81;95030.84;5012522;28;20044;-72
2022/07/25 03:52:59;;;;;;;21.85;15.52;;;;;;;20.29;99.67;95030.84;5027151;28;20067;-73
2022/07/25 03:55:26;;;;;;;21.42;15.68;;;;;;;20.35;100.00;95027.09;5007365;28;20095;-72
2022/07/25 03:57:53;;;;;;;20.23;16.58;;;;;;;20.27;99.81;95022.44;5009270;28;20064;-73
2022/07/25 04:00:20;;;;;;;19.63;16.20;;;;;;;20.35;99.58;95027.09;5027073;28;20040;-72
2022/07/25 04:02:47;;;;;;;26.02;17.35;;;;;;;20.41;100.00;95036.50;5010154;28;20044;-73
2022/07/25 04:05:14;;;;;;;21.58;15.15;;;;;;;20.39;99.19;95030.72;5008592;28;20577;-72
2022/07/25 04:07:41;;;;;;;22.83;16.08;;;;;;;20.49;99.61;95042.22;5010541;28;20040;-73
2022/07/25 04:10:08;;;;;;;24.60;15.85;;;;;;;20.50;99.43;95033.22;5011906;28;20042;-73
2022/07/25 04:12:36;;;;;;;21.08;15.02;;;;;;;20.42;99.24;95022.22;5010528;28;20087;-72
2022/07/25 04:15:04;;;;;;;24.05;15.80;;;;;;;20.57;99.25;95036.28;5026019;28;20045;-73
2022/07/25 04:17:30;;;;;;;20.10;16.33;;;;;;;20.61;98.71;95039.94;5024872;28;20037;-72
2022/07/25 04:19:58;;;;;;;24.40;15.82;;;;;;;20.54;98.81;95023.63;5030135;28;20040;-71
2022/07/25 04:22:25;;;;;;;24.85;15.70;;;;;;;20.65;98.65;95034.84;5030805;28;20124;-73
2022/07/25 04:24:54;;;;;;;22.27;15.63;;;;;;;20.66;98.75;95031.91;5032002;28;20554;-74
2022/07/25 04:27:21;;;;;;;23.73;15.68;;;;;;;20.73;98.64;95032.34;5031691;28;20048;-75
2022/07/25 04:29:48;;;;;;;24.58;15.27;;;;;;;20.75;98.41;95035.47;5026012;28;20052;-66
2022/07/25 04:32:15;;;;;;;24.10;15.10;;;;;;;20.78;98.35;95032.25;5024968;28;20366;-67
2022/07/25 04:34:50;;;;;;;19.42;14.95;;;;;;;20.86;98.08;95035.31;5026056;28;20135;-67
2022/07/25 04:37:17;;;;;;;21.35;15.43;;;;;;;20.89;98.08;95034.75;5028756;28;20045;-67
2022/07/25 04:39:43;;;;;;;22.42;15.50;;;;;;;20.98;97.82;95038.28;5031179;28;20042;-66
2022/07/25 04:42:10;;;;;;;20.77;15.32;;;;;;;20.98;97.81;95039.06;5029564;28;20467;-68
2022/07/25 04:44:37;;;;;;;23.08;14.57;;;;;;;21.02;97.09;95041.13;5027648;28;20056;-68
2022/07/25 04:47:04;;;;;;;20.75;15.40;;;;;;;21.06;97.03;95040.25;5027022;28;20067;-68
2022/07/25 04:49:31;;;;;;;21.95;15.48;;;;;;;21.14;95.90;95042.22;5031993;28;20044;-67
2022/07/25 04:51:58;;;;;;;26.33;15.65;;;;;;;21.19;95.72;95039.50;5028409;28;20037;-67
2022/07/25 04:54:24;;;;;;;24.63;14.50;;;;;;;21.24;94.87;95040.47;5010413;28;20038;-67
2022/07/25 04:56:51;;;;;;;19.73;14.38;;;;;;;21.27;94.58;95034.59;5011672;28;20052;-67
2022/07/25 04:59:18;;;;;;;18.52;14.32;;;;;;;21.29;94.42;95043.03;5032491;28;20056;-67
2022/07/25 05:01:45;;;;;;;17.50;14.10;;;;;;;21.31;94.28;95043.50;5012294;28;20418;-67
2022/07/25 05:04:12;;;;;;;17.20;14.48;;;;;;;21.31;94.40;95038.22;5032805;28;20141;-68
2022/07/25 05:06:38;;;;;;;22.33;16.58;;;;;;;21.33;95.48;95042.13;5033578;28;20582;-67
2022/07/25 05:09:05;;;;;;;22.58;14.88;;;;;;;21.46;94.48;95042.47;5033556;28;20068;-68
2022/07/25 05:11:32;;;;;;;16.98;13.57;;;;;;;21.56;93.29;95045.69;5034171;28;20527;-68
2022/07/25 05:14:00;;;;;;;22.67;13.85;;;;;;;21.57;92.72;95036.69;5033494;28;20049;-68
2022/07/25 05:16:27;;;;;;;24.95;14.88;;;;;;;21.63;92.21;95031.28;5030665;28;20445;-67
2022/07/25 05:18:54;;;;;;;17.70;13.55;;;;;;;21.75;90.61;95044.81;5032949;28;20041;-67
2022/07/25 05:21:21;;;;;;;18.60;13.27;;;;;;;21.82;90.22;95039.88;5031574;28;20068;-67
2022/07/25 05:23:47;;;;;;;18.88;12.32;;;;;;;21.93;88.69;95046.56;5031274;28;20045;-67
2022/07/25 05:26:14;;;;;;;15.68;12.38;;;;;;;22.02;88.55;95043.19;5026245;28;20053;-67
2022/07/25 05:28:41;;;;;;;15.57;11.52;;;;;;;22.14;87.62;95043.47;5031352;28;20420;-68
2022/07/25 05:31:08;;;;;;;14.45;11.38;;;;;;;22.20;85.89;95038.81;5032498;28;20051;-68
2022/07/25 05:33:35;;;;;;;19.90;11.68;;;;;;;22.28;86.52;95046.91;5030737;28;20061;-67
2022/07/25 05:36:03;;;;;;;17.00;11.43;;;;;;;22.35;85.36;95046.47;5027237;28;20048;-68
2022/07/25 05:38:30;;;;;;;17.85;12.10;;;;;;;22.48;85.22;95039.56;5032354;28;20065;-68
2022/07/25 05:40:57;;;;;;;16.35;12.10;;;;;;;22.48;83.88;95039.56;5032431;28;20059;-67
2022/07/25 05:43:23;;;;;;;13.80;11.10;;;;;;;22.48;83.89;95047.53;5015254;28;20049;-68
2022/07/25 05:45:51;;;;;;;15.27;12.15;;;;;;;22.57;84.00;95048.34;5032957;28;20069;-68
2022/07/25 05:48:17;;;;;;;16.92;10.43;;;;;;;22.66;82.96;95045.78;5033263;28;20452;-66
2022/07/25 05:50:44;;;;;;;20.20;12.23;;;;;;;22.71;83.55;95049.09;5032967;28;20616;-66
2022/07/25 05:53:11;;;;;;;17.15;12.65;;;;;;;22.79;81.57;95054.75;5028409;28;20514;-66
2022/07/25 05:55:38;;;;;;;19.45;12.30;;;;;;;22.79;81.59;95050.22;5032343;28;20055;-65
2022/07/25 05:58:08;;;;;;;19.40;12.75;;;;;;;22.80;81.09;95045.72;5030918;28;20053;-66
2022/07/25 06:00:35;;;;;;;18.45;12.30;;;;;;;22.90;81.31;95046.25;5010010;28;20049;-66
2022/07/25 06:03:02;;;;;;;15.38;12.25;;;;;;;23.01;81.44;95045.97;5023978;28;20045;-66
2022/07/25 06:05:30;;;;;;;18.75;12.82;;;;;;;23.08;81.10;95041.84;5024295;28;20821;-66
2022/07/25 06:07:57;;;;;;;18.08;13.13;;;;;;;23.13;81.52;95037.47;5023775;28;20049;-66
2022/07/25 06:10:24;;;;;;;16.90;11.63;;;;;;;23.16;81.97;95032.34;5022134;28;20056;-66
2022/07/25 06:12:50;;;;;;;19.00;13.88;;;;;;;23.37;80.67;95043.22;5024095;28;20073;-67
2022/07/25 06:15:18;;;;;;;16.88;13.30;;;;;;;23.44;79.69;95037.44;5023057;28;20061;-67
2022/07/25 06:17:48;;;;;;;14.85;12.77;;;;;;;23.40;79.60;95031.97;5022189;28;20049;-67
2022/07/25 06:20:15;;;;;;;15.73;12.82;;;;;;;23.54;79.42;95031.09;5024047;28;20144;-67
2022/07/25 06:22:42;;;;;;;17.17;11.38;;;;;;;23.72;80.25;95032.69;5005700;28;20045;-67
2022/07/25 06:25:09;;;;;;;20.52;10.43;;;;;;;23.97;77.58;95038.41;5022260;28;20037;-67
2022/07/25 06:27:37;;;;;;;20.38;11.23;;;;;;;24.14;76.07;95032.31;5023129;28;20053;-67
2022/07/25 06:30:06;;;;;;;15.93;10.68;;;;;;;24.22;74.40;95029.66;5023352;28;20042;-67
2022/07/25 06:32:46;;;;;;;16.77;11.23;;;;;;;24.32;73.37;95033.09;5025114;28;20061;-66
2022/07/25 06:35:13;;;;;;;22.83;11.93;;;;;;;24.46;73.15;95038.28;5029823;28;20099;-67
2022/07/25 06:37:40;;;;;;;13.63;11.18;;;;;;;24.55;72.46;95031.88;5028322;28;20049;-66
2022/07/25 06:40:07;;;;;;;30.35;11.63;;;;;;;24.45;72.00;95037.47;5028402;28;20434;-71
2022/07/25 06:42:39;;;;;;;14.55;10.27;;;;;;;24.55;71.24;95005.25;5029373;28;20053;-71
2022/07/25 06:45:09;;;;;;;9.85;6.72;;;;;;;24.86;69.52;95030.88;5022915;28;20041;-71
2022/07/25 06:47:38;;;;;;;16.63;9.13;;;;;;;24.85;68.80;95034.66;5024364;28;20053;-71
2022/07/25 06:50:07;;;;;;;12.18;9.60;;;;;;;25.03;67.37;95034.59;4988958;28;20049;-71
2022/07/25 06:52:37;;;;;;;16.95;10.02;;;;;;;25.27;66.89;95029.53;5019122;28;20530;-71
2022/07/25 06:55:06;;;;;;;14.27;8.95;;;;;;;25.44;66.58;95031.34;5019960;28;20050;-71
2022/07/25 06:57:33;;;;;;;11.55;9.52;;;;;;;25.46;65.71;95009.69;5022892;28;20119;-71
2022/07/25 07:00:00;;;;;;;12.40;8.90;;;;;;;25.64;64.39;95032.53;5019631;28;20069;-70
2022/07/25 07:02:27;;;;;;;12.80;8.35;;;;;;;25.78;62.17;95031.50;5005973;28;20103;-71
2022/07/25 07:04:53;;;;;;;14.73;9.70;;;;;;;25.82;62.22;95027.06;5021821;28;20050;-71
2022/07/25 07:07:20;;;;;;;16.15;7.93;;;;;;;25.93;62.39;95017.63;5004153;28;20052;-71
2022/07/25 07:09:47;;;;;;;11.88;8.98;;;;;;;25.97;60.96;95018.53;5002187;28;20140;-71
2022/07/25 07:12:14;;;;;;;13.75;9.10;;;;;;;26.09;61.78;95015.94;5023925;28;20041;-71
2022/07/25 07:14:43;;;;;;;12.63;9.32;;;;;;;26.30;61.93;95015.16;5011575;28;20045;-71
2022/07/25 07:17:10;;;;;;;11.15;8.93;;;;;;;26.24;61.43;95016.47;5023004;28;20427;-71
2022/07/25 07:19:43;;;;;;;16.15;8.57;;;;;;;26.48;61.41;95013.88;5027968;28;20059;-71
2022/07/25 07:22:10;;;;;;;12.68;8.77;;;;;;;26.55;59.68;95017.94;5010268;28;20042;-72
2022/07/25 07:24:39;;;;;;;10.77;7.97;;;;;;;26.69;56.56;95015.78;5010551;28;20056;-71
2022/07/25 07:27:10;;;;;;;13.60;8.63;;;;;;;26.78;57.56;95016.47;5011402;28;20396;-70
2022/07/25 07:29:37;;;;;;;9.73;7.55;;;;;;;26.74;56.90;95017.47;5031302;28;20422;-71
2022/07/25 07:32:05;;;;;;;11.85;8.10;;;;;;;26.73;54.68;95015.91;5022701;28;20068;-73
2022/07/25 07:34:32;;;;;;;15.13;9.18;;;;;;;26.78;57.42;95013.81;5006837;28;20049;-73
2022/07/25 07:36:59;;;;;;;14.32;9.27;;;;;;;26.81;57.21;95002.47;5024995;28;20100;-73
2022/07/25 07:39:26;;;;;;;28.63;6.60;;;;;;;26.68;56.25;95008.88;4990127;28;20053;-73
2022/07/25 07:41:53;;;;;;;14.57;7.28;;;;;;;26.63;54.26;95004.53;5005349;28;20537;-72
2022/07/25 07:44:20;;;;;;;8.45;7.43;;;;;;;26.91;53.84;95011.94;5022948;28;20052;-72
2022/07/25 07:46:47;;;;;;;11.40;7.70;;;;;;;26.97;53.56;95009.84;5005472;28;20037;-73
2022/07/25 07:49:14;;;;;;;14.35;8.57;;;;;;;27.09;53.55;95007.97;5023422;28;20076;-73
2022/07/25 07:51:41;;;;;;;11.77;7.95;;;;;;;27.34;52.10;95007.25;5022548;28;20064;-67
2022/07/25 07:56:54;;;;;;;9.43;7.90;;;;;;;27.55;51.35;95007.94;5020551;28;20317;-68
2022/07/25 07:59:21;;;;;;;14.05;8.93;;;;;;;27.44;50.62;95006.78;5021534;28;20477;-68
2022/07/25 08:01:47;;;;;;;10.95;8.38;;;;;;;27.51;51.21;95001.66;5027734;28;20127;-69
2022/07/25 08:04:15;;;;;;;11.43;8.70;;;;;;;27.70;49.51;95005.69;5027650;28;20511;-69
2022/07/25 08:06:42;;;;;;;10.63;8.02;;;;;;;27.82;48.85;95005.66;5029184;28;20042;-69
2022/07/25 08:09:08;;;;;;;10.48;8.15;;;;;;;27.88;48.66;95007.00;5032010;28;20051;-68
2022/07/25 08:11:36;;;;;;;9.60;8.13;;;;;;;28.03;49.35;95006.31;5030182;28;20084;-68
2022/07/25 08:14:04;;;;;;;12.02;7.82;;;;;;;27.99;49.53;94999.31;5030826;28;20506;-69
2022/07/25 08:16:32;;;;;;;8.85;7.75;;;;;;;28.17;49.50;95011.31;5028863;28;20049;-69
2022/07/25 08:18:59;;;;;;;12.07;7.72;;;;;;;28.25;48.27;95004.25;5014884;28;20037;-68
2022/07/25 08:21:26;;;;;;;13.18;9.05;;;;;;;28.43;48.52;95012.78;5026505;28;20051;-69
2022/07/25 08:23:53;;;;;;;16.90;8.93;;;;;;;28.49;48.62;95010.66;5025928;28;20041;-69
2022/07/25 08:26:20;;;;;;;12.60;7.63;;;;;;;28.39;48.64;95006.56;5028256;28;20049;-68
2022/07/25 08:28:47;;;;;;;10.85;8.27;;;;;;;28.82;47.04;95012.31;5025702;28;20059;-69
2022/07/25 08:31:34;;;;;;;13.05;7.82;;;;;;;28.92;47.11;94993.06;5006680;28;20548;-69
2022/07/25 08:34:01;;;;;;;12.20;7.35;;;;;;;29.23;45.94;95011.09;5027546;28;20079;-68
2022/07/25 08:36:28;;;;;;;8.88;6.75;;;;;;;29.06;44.88;95000.66;5008075;28;20059;-68
2022/07/25 08:39:00;;;;;;;11.45;7.65;;;;;;;28.92;44.89;95007.25;5011471;28;20642;-69
2022/07/25 08:41:27;;;;;;;12.65;7.68;;;;;;;29.15;44.75;95009.34;5030700;28;20140;-68
2022/07/25 08:43:55;;;;;;;12.85;8.15;;;;;;;29.06;43.83;95000.66;5027188;28;20043;-68
2022/07/25 08:46:23;;;;;;;11.90;7.10;;;;;;;28.87;44.26;94999.44;5027252;28;20140;-68
2022/07/25 08:48:50;;;;;;;9.02;7.43;;;;;;;29.05;44.54;94999.13;5023723;28;20047;-69
2022/07/25 08:51:18;;;;;;;14.35;7.28;;;;;;;29.28;44.30;95005.47;5025728;28;20118;-69
2022/07/25 08:53:46;;;;;;;9.32;6.93;;;;;;;29.36;43.10;95009.09;5021633;28;20089;-69
2022/07/25 08:56:14;;;;;;;10.60;7.32;;;;;;;29.52;43.54;95001.81;5021692;28;20052;-68
2022/07/25 08:58:46;;;;;;;11.75;7.40;;;;;;;29.45;42.72;95000.88;5021647;28;20045;-69
2022/07/25 09:01:13;;;;;;;15.38;7.22;;;;;;;29.73;41.91;95000.75;5021743;28;20056;-69
2022/07/25 09:03:42;;;;;;;9.30;7.57;;;;;;;29.79;42.30;94995.91;5024057;28;20390;-69
2022/07/25 09:06:14;;;;;;;10.55;7.20;;;;;;;29.98;41.77;95000.53;5025881;28;20076;-69
2022/07/25 09:08:58;;;;;;;10.52;7.47;;;;;;;30.16;40.74;94984.78;5025320;28;20407;-68
2022/07/25 09:11:34;;;;;;;7.43;6.60;;;;;;;30.11;41.71;94993.91;5024918;28;20527;-68
2022/07/25 09:14:06;;;;;;;13.32;7.90;;;;;;;30.42;41.08;94986.88;5023808;28;20037;-68
2022/07/25 09:16:42;;;;;;;9.75;7.10;;;;;;;30.63;39.79;94981.13;5023723;28;20040;-69
2022/07/25 09:19:15;;;;;;;14.60;7.15;;;;;;;30.39;39.71;94992.97;5032701;28;20050;-68
2022/07/25 09:21:44;;;;;;;7.53;6.17;;;;;;;29.93;39.57;94988.94;5015939;28;20052;-68
2022/07/25 09:24:17;;;;;;;10.05;7.00;;;;;;;29.68;39.45;94982.22;5036350;28;20514;-68
2022/07/25 09:26:52;;;;;;;11.48;7.03;;;;;;;29.97;38.78;94982.88;5015388;28;20049;-69
2022/07/25 09:29:31;;;;;;;11.15;6.50;;;;;;;30.19;37.59;94978.72;5032870;28;20534;-68
2022/07/25 09:32:00;;;;;;;6.95;6.00;;;;;;;30.49;35.14;94982.41;5031570;28;20526;-68
2022/07/25 09:34:41;;;;;;;9.20;6.32;;;;;;;30.74;34.98;94981.31;5031255;28;20044;-68
2022/07/25 09:37:11;;;;;;;8.35;5.95;;;;;;;30.94;35.39;94969.44;5031071;28;20050;-68
2022/07/25 09:39:49;;;;;;;6.40;5.70;;;;;;;31.16;35.90;94985.91;5033199;28;20036;-68
2022/07/25 09:42:24;;;;;;;7.20;5.30;;;;;;;31.47;33.56;94973.31;5026943;28;20418;-68
2022/07/25 09:45:06;;;;;;;6.88;6.18;;;;;;;31.62;30.50;94969.72;5028951;28;20049;-68
2022/07/25 09:47:36;;;;;;;6.60;5.20;;;;;;;31.77;30.41;94973.41;5033965;28;20538;-68
2022/07/25 09:50:04;;;;;;;6.70;5.55;;;;;;;31.73;30.41;94973.34;5031439;28;20574;-68
2022/07/25 09:52:32;;;;;;;5.28;4.78;;;;;;;31.55;28.88;94965.03;5029001;28;20484;-69
2022/07/25 09:55:02;;;;;;;7.10;5.78;;;;;;;32.06;30.56;94977.28;5033049;28;20051;-68
2022/07/25 09:57:29;;;;;;;5.72;4.80;;;;;;;32.29;30.55;94965.63;5029131;28;20049;-68
2022/07/25 09:59:59;;;;;;;7.82;5.80;;;;;;;32.68;31.68;94973.38;5031554;28;20497;-68
2022/07/25 10:02:47;;;;;;;7.50;5.72;;;;;;;32.85;31.19;94978.19;5012639;28;20049;-68
2022/07/25 10:05:36;;;;;;;7.55;6.65;;;;;;;32.88;29.85;94972.06;5028084;28;20493;-68
2022/07/25 10:08:06;;;;;;;11.20;6.28;;;;;;;33.11;29.36;94979.19;5022745;28;20050;-68
2022/07/25 10:10:38;;;;;;;6.85;5.40;;;;;;;33.27;29.57;94981.66;5021947;28;20481;-68
2022/07/25 10:13:16;;;;;;;9.32;5.97;;;;;;;33.31;28.33;94982.44;5006733;28;20072;-68
2022/07/25 10:15:47;;;;;;;5.60;5.07;;;;;;;33.46;27.45;94983.34;5004450;28;20049;-69
2022/07/25 10:18:16;;;;;;;7.38;5.57;;;;;;;33.60;27.04;94978.06;5021472;28;20499;-68
2022/07/25 10:20:45;;;;;;;6.35;4.45;;;;;;;33.49;26.71;94977.19;5023383;28;20179;-68
2022/07/25 10:23:24;;;;;;;8.10;5.13;;;;;;;33.32;27.67;94973.97;5023641;28;20494;-68
2022/07/25 10:26:18;;;;;;;6.13;5.47;;;;;;;33.67;26.55;94970.03;5023586;28;20057;-68
2022/07/25 10:28:48;;;;;;;5.88;5.28;;;;;;;33.41;26.55;94970.19;5021643;28;20047;-68
2022/07/25 10:31:20;;;;;;;6.10;5.00;;;;;;;32.99;27.17;94971.34;5021291;28;20597;-68
2022/07/25 10:33:58;;;;;;;6.63;5.00;;;;;;;33.52;27.51;94960.25;5022139;28;20052;-68
2022/07/25 10:36:31;;;;;;;8.07;4.95;;;;;;;33.95;25.97;94971.31;5021991;28;20507;-70
2022/07/25 10:39:01;;;;;;;9.25;4.50;;;;;;;34.57;25.21;94961.53;5029764;28;20048;-69
2022/07/25 10:41:28;;;;;;;6.57;5.38;;;;;;;35.00;27.11;94967.06;5031770;28;20037;-65
2022/07/25 10:43:59;;;;;;;10.15;5.45;;;;;;;34.90;27.58;94967.81;5030788;28;20041;-73
2022/07/25 10:46:29;;;;;;;6.80;5.93;;;;;;;34.72;27.88;94960.44;5032784;28;20107;-72
2022/07/25 10:49:06;;;;;;;5.20;4.70;;;;;;;34.71;27.11;94960.84;5010694;28;20129;-72
2022/07/25 10:51:35;;;;;;;6.03;5.30;;;;;;;34.76;27.19;94953.13;5028107;28;20113;-72
2022/07/25 10:54:11;;;;;;;;;;;;;;;35.30;25.86;94955.09;5032347;28;20044;-71
2022/07/25 10:56:50;;;;;;;7.18;5.70;;;;;;;35.31;26.12;94964.75;5031579;28;19928;-71
2022/07/25 10:59:31;;;;;;;8.38;5.40;;;;;;;35.04;26.50;94959.69;5026340;28;20582;-71
2022/07/25 11:01:59;;;;;;;6.72;5.18;;;;;;;35.48;25.20;94955.84;5008130;28;20041;-71
2022/07/25 11:04:27;;;;;;;6.05;5.28;;;;;;;35.82;24.61;94960.84;5008895;28;20543;-70
2022/07/25 11:06:55;;;;;;;5.43;4.88;;;;;;;36.09;23.92;94946.84;5015762;28;20437;-71
2022/07/25 11:09:25;;;;;;;5.82;5.22;;;;;;;36.11;24.75;94952.63;5017824;28;20375;-72
2022/07/25 11:11:58;;;;;;;8.65;5.40;;;;;;;36.50;25.29;94938.13;5021796;28;20049;-71
2022/07/25 11:14:40;;;;;;;6.00;4.55;;;;;;;37.24;23.77;94940.75;5035457;28;20037;-70
2022/07/25 11:17:19;;;;;;;6.75;4.90;;;;;;;37.84;23.07;94949.53;5042321;28;20362;-71
2022/07/25 11:19:59;;;;;;;7.93;5.07;;;;;;;37.77;21.97;94953.09;5020576;28;20511;-72
2022/07/25 11:22:27;;;;;;;6.18;5.57;;;;;;;36.34;24.63;94941.34;5021345;28;20042;-72
2022/07/25 11:24:58;;;;;;;8.45;5.68;;;;;;;35.45;26.03;94939.63;5022973;28;20966;-72
2022/07/25 11:27:33;;;;;;;6.68;5.63;;;;;;;34.23;27.21;94941.00;5019521;28;20068;-72
2022/07/25 11:30:13;;;;;;;7.13;6.13;;;;;;;33.65;27.94;94937.19;5008577;28;20052;-72
2022/07/25 11:32:44;;;;;;;7.38;6.20;;;;;;;33.53;28.70;94934.81;5025626;28;20136;-72